Station Historical Data
Daily Summary for February 24, 2012 Units:  Both    English   Metric
« Previous Day
Next Day »
Daily Weekly Monthly Yearly Custom
  High: Low: Average:
Temperature: 69.7 °F /  20.9 °C 33.9 °F /  1.1 °C 51.5 °F /  10.8 °C
Dew Point: 61.7 °F /  16.5 °C 23.4 °F /  -4.8 °C 35 °F /  1.7 °C
Humidity: 79% 34% 54%
Wind Speed: 25.0mph /  40.2km/h - 8.5mph /  13.7km/h
Wind Gust: 26.0mph /  41.8km/h - -
Wind- - West
Pressure: 30.17 in /  1021.6 hPa 29.46 in /  997.5 hPa -
Precipitation: 0.00 in /  0 mm    
Historical Graphs
 
 
Tabular Data for February 24, 2012
Time Temperature Dew Point Pressure Wind Wind Speed Wind Gust Humidity Rainfall Rate (Hourly) Conditions
00:00 69.7 °F /  20.9 °C 60.3 °F /  15.7 °C 29.46in /  997.5hPa SSW 9.0mph /  14.5km/h 14.0mph /  22.5km/h 72% 0.00in /  0mm
00:02 69.7 °F /  20.9 °C 60.7 °F /  15.9 °C 29.47in /  997.9hPa SSW 11.0mph /  17.7km/h 16.0mph /  25.7km/h 73% 0.00in /  0mm
00:07 69.7 °F /  20.9 °C 60.7 °F /  15.9 °C 29.46in /  997.5hPa South 9.0mph /  14.5km/h 13.0mph /  20.9km/h 73% 0.00in /  0mm
00:12 69.6 °F /  20.9 °C 60.6 °F /  15.9 °C 29.46in /  997.5hPa SSE 13.0mph /  20.9km/h 16.0mph /  25.7km/h 73% 0.00in /  0mm
00:17 69.5 °F /  20.8 °C 60.9 °F /  16.1 °C 29.46in /  997.5hPa SSW 6.0mph /  9.7km/h 14.0mph /  22.5km/h 74% 0.00in /  0mm
00:22 69.4 °F /  20.8 °C 61.1 °F /  16.2 °C 29.47in /  997.9hPa South 10.0mph /  16.1km/h 16.0mph /  25.7km/h 75% 0.00in /  0mm
00:27 69.4 °F /  20.8 °C 61.1 °F /  16.2 °C 29.47in /  997.9hPa SSE 6.0mph /  9.7km/h 13.0mph /  20.9km/h 75% 0.00in /  0mm
00:32 69.3 °F /  20.7 °C 61.0 °F /  16.1 °C 29.47in /  997.9hPa SW 9.0mph /  14.5km/h 15.0mph /  24.1km/h 75% 0.00in /  0mm
00:37 69.3 °F /  20.7 °C 61.0 °F /  16.1 °C 29.47in /  997.9hPa SW 6.0mph /  9.7km/h 13.0mph /  20.9km/h 75% 0.00in /  0mm
00:42 69.4 °F /  20.8 °C 61.5 °F /  16.4 °C 29.47in /  997.9hPa South 11.0mph /  17.7km/h 14.0mph /  22.5km/h 76% 0.00in /  0mm
00:47 69.4 °F /  20.8 °C 61.5 °F /  16.4 °C 29.47in /  997.9hPa SSW 9.0mph /  14.5km/h 17.0mph /  27.4km/h 76% 0.00in /  0mm
00:52 69.4 °F /  20.8 °C 61.5 °F /  16.4 °C 29.47in /  997.9hPa South 9.0mph /  14.5km/h 12.0mph /  19.3km/h 76% 0.00in /  0mm
00:57 69.4 °F /  20.8 °C 61.5 °F /  16.4 °C 29.47in /  997.9hPa WSW 16.0mph /  25.7km/h 18.0mph /  29km/h 76% 0.00in /  0mm
01:02 69.6 °F /  20.9 °C 61.7 °F /  16.5 °C 29.48in /  998.2hPa SW 16.0mph /  25.7km/h 16.0mph /  25.7km/h 76% 0.00in /  0mm
01:07 69.4 °F /  20.8 °C 61.5 °F /  16.4 °C 29.48in /  998.2hPa SW 12.0mph /  19.3km/h 16.0mph /  25.7km/h 76% 0.00in /  0mm
01:12 69.3 °F /  20.7 °C 61.4 °F /  16.3 °C 29.48in /  998.2hPa SW 10.0mph /  16.1km/h 17.0mph /  27.4km/h 76% 0.00in /  0mm
01:17 69.1 °F /  20.6 °C 61.6 °F /  16.4 °C 29.48in /  998.2hPa SW 8.0mph /  12.9km/h 11.0mph /  17.7km/h 77% 0.00in /  0mm
01:22 69.1 °F /  20.6 °C 61.6 °F /  16.4 °C 29.49in /  998.5hPa SSW 10.0mph /  16.1km/h 16.0mph /  25.7km/h 77% 0.00in /  0mm
01:27 68.9 °F /  20.5 °C 61.4 °F /  16.3 °C 29.49in /  998.5hPa SSW 16.0mph /  25.7km/h 17.0mph /  27.4km/h 77% 0.00in /  0mm
01:32 69.1 °F /  20.6 °C 61.6 °F /  16.4 °C 29.50in /  998.9hPa SW 11.0mph /  17.7km/h 17.0mph /  27.4km/h 77% 0.00in /  0mm
01:37 69.0 °F /  20.6 °C 61.5 °F /  16.4 °C 29.49in /  998.5hPa SSW 7.0mph /  11.3km/h 11.0mph /  17.7km/h 77% 0.00in /  0mm
01:42 68.8 °F /  20.4 °C 61.3 °F /  16.3 °C 29.49in /  998.5hPa WSW 11.0mph /  17.7km/h 15.0mph /  24.1km/h 77% 0.00in /  0mm
01:47 68.8 °F /  20.4 °C 61.3 °F /  16.3 °C 29.50in /  998.9hPa SW 6.0mph /  9.7km/h 13.0mph /  20.9km/h 77% 0.00in /  0mm
01:52 68.7 °F /  20.4 °C 61.2 °F /  16.2 °C 29.50in /  998.9hPa SSW 5.0mph /  8km/h 14.0mph /  22.5km/h 77% 0.00in /  0mm
01:57 68.6 °F /  20.3 °C 61.1 °F /  16.2 °C 29.50in /  998.9hPa SW 8.0mph /  12.9km/h 16.0mph /  25.7km/h 77% 0.00in /  0mm
02:02 68.6 °F /  20.3 °C 61.1 °F /  16.2 °C 29.51in /  999.2hPa SW 8.0mph /  12.9km/h 18.0mph /  29km/h 77% 0.00in /  0mm
02:07 68.6 °F /  20.3 °C 61.1 °F /  16.2 °C 29.50in /  998.9hPa SW 16.0mph /  25.7km/h 17.0mph /  27.4km/h 77% 0.00in /  0mm
02:12 68.7 °F /  20.4 °C 60.8 °F /  16 °C 29.51in /  999.2hPa SSW 11.0mph /  17.7km/h 15.0mph /  24.1km/h 76% 0.00in /  0mm
02:18 68.5 °F /  20.3 °C 60.6 °F /  15.9 °C 29.51in /  999.2hPa SW 12.0mph /  19.3km/h 16.0mph /  25.7km/h 76% 0.00in /  0mm
02:23 68.2 °F /  20.1 °C 60.3 °F /  15.7 °C 29.51in /  999.2hPa West 7.0mph /  11.3km/h 13.0mph /  20.9km/h 76% 0.00in /  0mm
02:28 68.0 °F /  20 °C 60.2 °F /  15.7 °C 29.52in /  999.5hPa SW 8.0mph /  12.9km/h 13.0mph /  20.9km/h 76% 0.00in /  0mm
02:33 68.1 °F /  20.1 °C 59.9 °F /  15.5 °C 29.52in /  999.5hPa WSW 9.0mph /  14.5km/h 15.0mph /  24.1km/h 75% 0.00in /  0mm
02:38 68.0 °F /  20 °C 59.4 °F /  15.2 °C 29.52in /  999.5hPa WSW 16.0mph /  25.7km/h 17.0mph /  27.4km/h 74% 0.00in /  0mm
02:43 67.8 °F /  19.9 °C 58.5 °F /  14.7 °C 29.52in /  999.5hPa West 16.0mph /  25.7km/h 18.0mph /  29km/h 72% 0.00in /  0mm
02:48 67.4 °F /  19.7 °C 57.3 °F /  14.1 °C 29.54in /  1000.2hPa WSW 10.0mph /  16.1km/h 13.0mph /  20.9km/h 70% 0.00in /  0mm
02:53 67.0 °F /  19.4 °C 54.0 °F /  12.2 °C 29.54in /  1000.2hPa West 17.0mph /  27.4km/h 17.0mph /  27.4km/h 63% 0.00in /  0mm
02:58 66.7 °F /  19.3 °C 53.3 °F /  11.8 °C 29.54in /  1000.2hPa WSW 11.0mph /  17.7km/h 12.0mph /  19.3km/h 62% 0.00in /  0mm
03:03 66.1 °F /  18.9 °C 53.2 °F /  11.8 °C 29.54in /  1000.2hPa WNW 6.0mph /  9.7km/h 7.0mph /  11.3km/h 63% 0.00in /  0mm
03:08 65.5 °F /  18.6 °C 52.2 °F /  11.2 °C 29.54in /  1000.2hPa West 8.0mph /  12.9km/h 10.0mph /  16.1km/h 62% 0.00in /  0mm
03:13 65.2 °F /  18.4 °C 49.1 °F /  9.5 °C 29.54in /  1000.2hPa West 5.0mph /  8km/h 12.0mph /  19.3km/h 56% 0.00in /  0mm
03:18 65.0 °F /  18.3 °C 48.9 °F /  9.4 °C 29.54in /  1000.2hPa WSW 9.0mph /  14.5km/h 12.0mph /  19.3km/h 56% 0.00in /  0mm
03:23 64.4 °F /  18 °C 47.9 °F /  8.8 °C 29.54in /  1000.2hPa WSW 5.0mph /  8km/h 8.0mph /  12.9km/h 55% 0.00in /  0mm
03:28 63.8 °F /  17.7 °C 47.3 °F /  8.5 °C 29.55in /  1000.6hPa West 8.0mph /  12.9km/h 10.0mph /  16.1km/h 55% 0.00in /  0mm
03:33 63.6 °F /  17.6 °C 47.2 °F /  8.4 °C 29.55in /  1000.6hPa West 8.0mph /  12.9km/h 8.0mph /  12.9km/h 55% 0.00in /  0mm
03:38 63.3 °F /  17.4 °C 46.9 °F /  8.3 °C 29.55in /  1000.6hPa West 3.0mph /  4.8km/h 6.0mph /  9.7km/h 55% 0.00in /  0mm
03:43 62.8 °F /  17.1 °C 46.4 °F /  8 °C 29.55in /  1000.6hPa West 6.0mph /  9.7km/h 9.0mph /  14.5km/h 55% 0.00in /  0mm
03:48 62.7 °F /  17.1 °C 45.3 °F /  7.4 °C 29.55in /  1000.6hPa WNW 5.0mph /  8km/h 9.0mph /  14.5km/h 53% 0.00in /  0mm
03:53 62.6 °F /  17 °C 45.2 °F /  7.3 °C 29.55in /  1000.6hPa West 4.0mph /  6.4km/h 8.0mph /  12.9km/h 53% 0.00in /  0mm
03:58 62.3 °F /  16.8 °C 45.5 °F /  7.5 °C 29.55in /  1000.6hPa West 3.0mph /  4.8km/h 8.0mph /  12.9km/h 54% 0.00in /  0mm
04:03 61.8 °F /  16.6 °C 45.0 °F /  7.2 °C 29.55in /  1000.6hPa West 5.0mph /  8km/h 5.0mph /  8km/h 54% 0.00in /  0mm
04:08 61.7 °F /  16.5 °C 45.4 °F /  7.4 °C 29.56in /  1000.9hPa WNW 3.0mph /  4.8km/h 9.0mph /  14.5km/h 55% 0.00in /  0mm
04:13 61.6 °F /  16.4 °C 45.3 °F /  7.4 °C 29.56in /  1000.9hPa WNW 4.0mph /  6.4km/h 10.0mph /  16.1km/h 55% 0.00in /  0mm
04:18 61.2 °F /  16.2 °C 45.9 °F /  7.7 °C 29.57in /  1001.2hPa WSW 8.0mph /  12.9km/h 8.0mph /  12.9km/h 57% 0.00in /  0mm
04:23 60.8 °F /  16 °C 45.5 °F /  7.5 °C 29.57in /  1001.2hPa West 6.0mph /  9.7km/h 12.0mph /  19.3km/h 57% 0.00in /  0mm
04:28 60.5 °F /  15.8 °C 45.2 °F /  7.3 °C 29.57in /  1001.2hPa WNW 4.0mph /  6.4km/h 12.0mph /  19.3km/h 57% 0.00in /  0mm
04:33 60.3 °F /  15.7 °C 45.0 °F /  7.2 °C 29.58in /  1001.6hPa WNW 6.0mph /  9.7km/h 11.0mph /  17.7km/h 57% 0.00in /  0mm
04:38 60.0 °F /  15.6 °C 45.2 °F /  7.3 °C 29.58in /  1001.6hPa West 5.0mph /  8km/h 11.0mph /  17.7km/h 58% 0.00in /  0mm
04:43 59.7 °F /  15.4 °C 45.4 °F /  7.4 °C 29.59in /  1001.9hPa WNW 6.0mph /  9.7km/h 7.0mph /  11.3km/h 59% 0.00in /  0mm
04:48 59.5 °F /  15.3 °C 45.2 °F /  7.3 °C 29.59in /  1001.9hPa WNW 8.0mph /  12.9km/h 10.0mph /  16.1km/h 59% 0.00in /  0mm
04:54 59.4 °F /  15.2 °C 45.1 °F /  7.3 °C 29.59in /  1001.9hPa West 11.0mph /  17.7km/h 15.0mph /  24.1km/h 59% 0.00in /  0mm
04:59 59.1 °F /  15.1 °C 44.8 °F /  7.1 °C 29.59in /  1001.9hPa WNW 6.0mph /  9.7km/h 12.0mph /  19.3km/h 59% 0.00in /  0mm
05:04 58.6 °F /  14.8 °C 44.3 °F /  6.8 °C 29.60in /  1002.3hPa NW 8.0mph /  12.9km/h 12.0mph /  19.3km/h 59% 0.00in /  0mm
05:09 58.3 °F /  14.6 °C 44.0 °F /  6.7 °C 29.60in /  1002.3hPa WNW 10.0mph /  16.1km/h 12.0mph /  19.3km/h 59% 0.00in /  0mm
05:14 58.1 °F /  14.5 °C 44.3 °F /  6.8 °C 29.61in /  1002.6hPa West 6.0mph /  9.7km/h 12.0mph /  19.3km/h 60% 0.00in /  0mm
05:19 57.9 °F /  14.4 °C 44.1 °F /  6.7 °C 29.61in /  1002.6hPa WNW 8.0mph /  12.9km/h 14.0mph /  22.5km/h 60% 0.00in /  0mm
05:24 57.7 °F /  14.3 °C 43.9 °F /  6.6 °C 29.62in /  1002.9hPa West 6.0mph /  9.7km/h 12.0mph /  19.3km/h 60% 0.00in /  0mm
05:29 57.4 °F /  14.1 °C 44.1 °F /  6.7 °C 29.62in /  1002.9hPa WNW 6.0mph /  9.7km/h 11.0mph /  17.7km/h 61% 0.00in /  0mm
05:34 57.1 °F /  13.9 °C 43.8 °F /  6.6 °C 29.62in /  1002.9hPa WNW 9.0mph /  14.5km/h 11.0mph /  17.7km/h 61% 0.00in /  0mm
05:39 56.8 °F /  13.8 °C 43.9 °F /  6.6 °C 29.63in /  1003.3hPa West 9.0mph /  14.5km/h 10.0mph /  16.1km/h 62% 0.00in /  0mm
05:44 56.7 °F /  13.7 °C 43.8 °F /  6.6 °C 29.63in /  1003.3hPa West 6.0mph /  9.7km/h 12.0mph /  19.3km/h 62% 0.00in /  0mm
05:49 56.5 °F /  13.6 °C 43.7 °F /  6.5 °C 29.64in /  1003.6hPa WSW 12.0mph /  19.3km/h 12.0mph /  19.3km/h 62% 0.00in /  0mm
05:54 56.1 °F /  13.4 °C 43.3 °F /  6.3 °C 29.64in /  1003.6hPa West 5.0mph /  8km/h 10.0mph /  16.1km/h 62% 0.00in /  0mm
05:59 56.0 °F /  13.3 °C 42.8 °F /  6 °C 29.64in /  1003.6hPa WNW 12.0mph /  19.3km/h 16.0mph /  25.7km/h 61% 0.00in /  0mm
06:04 55.6 °F /  13.1 °C 42.4 °F /  5.8 °C 29.64in /  1003.6hPa WNW 6.0mph /  9.7km/h 11.0mph /  17.7km/h 61% 0.00in /  0mm
06:09 55.5 °F /  13.1 °C 42.3 °F /  5.7 °C 29.64in /  1003.6hPa WNW 6.0mph /  9.7km/h 11.0mph /  17.7km/h 61% 0.00in /  0mm
06:14 55.1 °F /  12.8 °C 42.3 °F /  5.7 °C 29.65in /  1003.9hPa WNW 10.0mph /  16.1km/h 14.0mph /  22.5km/h 62% 0.00in /  0mm
06:19 55.1 °F /  12.8 °C 41.9 °F /  5.5 °C 29.64in /  1003.6hPa WNW 13.0mph /  20.9km/h 15.0mph /  24.1km/h 61% 0.00in /  0mm
06:24 54.8 °F /  12.7 °C 42.0 °F /  5.6 °C 29.65in /  1003.9hPa West 12.0mph /  19.3km/h 16.0mph /  25.7km/h 62% 0.00in /  0mm
06:29 54.7 °F /  12.6 °C 42.0 °F /  5.6 °C 29.65in /  1003.9hPa WNW 10.0mph /  16.1km/h 15.0mph /  24.1km/h 62% 0.00in /  0mm
06:34 54.4 °F /  12.4 °C 42.1 °F /  5.6 °C 29.65in /  1003.9hPa West 7.0mph /  11.3km/h 14.0mph /  22.5km/h 63% 0.00in /  0mm
06:39 54.2 °F /  12.3 °C 41.9 °F /  5.5 °C 29.66in /  1004.3hPa WNW 7.0mph /  11.3km/h 10.0mph /  16.1km/h 63% 0.00in /  0mm
06:44 53.8 °F /  12.1 °C 41.9 °F /  5.5 °C 29.66in /  1004.3hPa West 5.0mph /  8km/h 7.0mph /  11.3km/h 64% 0.00in /  0mm
06:49 53.6 °F /  12 °C 41.7 °F /  5.4 °C 29.67in /  1004.6hPa WNW 10.0mph /  16.1km/h 13.0mph /  20.9km/h 64% 0.00in /  0mm
06:54 53.3 °F /  11.8 °C 40.2 °F /  4.6 °C 29.67in /  1004.6hPa WNW 10.0mph /  16.1km/h 11.0mph /  17.7km/h 61% 0.00in /  0mm
06:59 53.2 °F /  11.8 °C 39.7 °F /  4.3 °C 29.67in /  1004.6hPa West 11.0mph /  17.7km/h 14.0mph /  22.5km/h 60% 0.00in /  0mm
07:04 53.0 °F /  11.7 °C 39.1 °F /  3.9 °C 29.68in /  1005hPa NW 14.0mph /  22.5km/h 14.0mph /  22.5km/h 59% 0.00in /  0mm
07:09 52.8 °F /  11.6 °C 39.3 °F /  4.1 °C 29.68in /  1005hPa WNW 4.0mph /  6.4km/h 12.0mph /  19.3km/h 60% 0.00in /  0mm
07:14 52.7 °F /  11.5 °C 39.2 °F /  4 °C 29.69in /  1005.3hPa WNW 6.0mph /  9.7km/h 13.0mph /  20.9km/h 60% 0.00in /  0mm
07:19 52.6 °F /  11.4 °C 39.1 °F /  3.9 °C 29.69in /  1005.3hPa SSW 7.0mph /  11.3km/h 9.0mph /  14.5km/h 60% 0.00in /  0mm
07:24 52.6 °F /  11.4 °C 37.8 °F /  3.2 °C 29.70in /  1005.6hPa WNW 10.0mph /  16.1km/h 13.0mph /  20.9km/h 57% 0.00in /  0mm
07:29 52.7 °F /  11.5 °C 36.1 °F /  2.3 °C 29.70in /  1005.6hPa WNW 8.0mph /  12.9km/h 14.0mph /  22.5km/h 53% 0.00in /  0mm
07:34 52.6 °F /  11.4 °C 35.5 °F /  1.9 °C 29.70in /  1005.6hPa NW 13.0mph /  20.9km/h 20.0mph /  32.2km/h 52% 0.00in /  0mm
07:39 52.4 °F /  11.3 °C 35.3 °F /  1.8 °C 29.71in /  1006hPa West 9.0mph /  14.5km/h 16.0mph /  25.7km/h 52% 0.00in /  0mm
07:44 52.3 °F /  11.3 °C 36.2 °F /  2.3 °C 29.71in /  1006hPa WNW 8.0mph /  12.9km/h 19.0mph /  30.6km/h 54% 0.00in /  0mm
07:49 52.1 °F /  11.2 °C 36.4 °F /  2.4 °C 29.70in /  1005.6hPa WNW 11.0mph /  17.7km/h 16.0mph /  25.7km/h 55% 0.00in /  0mm
07:54 51.9 °F /  11.1 °C 36.3 °F /  2.4 °C 29.72in /  1006.3hPa West 8.0mph /  12.9km/h 11.0mph /  17.7km/h 55% 0.00in /  0mm
07:59 51.8 °F /  11 °C 35.7 °F /  2.1 °C 29.73in /  1006.7hPa West 15.0mph /  24.1km/h 15.0mph /  24.1km/h 54% 0.00in /  0mm
08:04 51.7 °F /  10.9 °C 34.7 °F /  1.5 °C 29.73in /  1006.7hPa WNW 10.0mph /  16.1km/h 19.0mph /  30.6km/h 52% 0.00in /  0mm
08:09 51.4 °F /  10.8 °C 33.9 °F /  1.1 °C 29.73in /  1006.7hPa WNW 8.0mph /  12.9km/h 21.0mph /  33.8km/h 51% 0.00in /  0mm
08:14 51.2 °F /  10.7 °C 33.7 °F /  0.9 °C 29.74in /  1007hPa West 7.0mph /  11.3km/h 16.0mph /  25.7km/h 51% 0.00in /  0mm
08:20 51.1 °F /  10.6 °C 33.1 °F /  0.6 °C 29.74in /  1007hPa WNW 9.0mph /  14.5km/h 15.0mph /  24.1km/h 50% 0.00in /  0mm
08:25 51.0 °F /  10.6 °C 33.0 °F /  0.6 °C 29.75in /  1007.3hPa NW 5.0mph /  8km/h 15.0mph /  24.1km/h 50% 0.00in /  0mm
08:30 51.0 °F /  10.6 °C 29.9 °F /  -1.2 °C 29.75in /  1007.3hPa WNW 16.0mph /  25.7km/h 20.0mph /  32.2km/h 44% 0.00in /  0mm
08:35 51.0 °F /  10.6 °C 29.3 °F /  -1.5 °C 29.76in /  1007.7hPa NNW 12.0mph /  19.3km/h 17.0mph /  27.4km/h 43% 0.00in /  0mm
08:40 50.9 °F /  10.5 °C 28.6 °F /  -1.9 °C 29.77in /  1008hPa West 19.0mph /  30.6km/h 19.0mph /  30.6km/h 42% 0.00in /  0mm
08:45 50.8 °F /  10.4 °C 28.0 °F /  -2.2 °C 29.77in /  1008hPa WNW 8.0mph /  12.9km/h 16.0mph /  25.7km/h 41% 0.00in /  0mm
08:50 50.8 °F /  10.4 °C 27.4 °F /  -2.6 °C 29.77in /  1008hPa WNW 10.0mph /  16.1km/h 16.0mph /  25.7km/h 40% 0.00in /  0mm
08:55 50.8 °F /  10.4 °C 28.5 °F /  -1.9 °C 29.78in /  1008.4hPa WNW 10.0mph /  16.1km/h 13.0mph /  20.9km/h 42% 0.00in /  0mm
09:00 50.7 °F /  10.4 °C 27.9 °F /  -2.3 °C 29.78in /  1008.4hPa NW 14.0mph /  22.5km/h 19.0mph /  30.6km/h 41% 0.00in /  0mm
09:05 50.5 °F /  10.3 °C 28.9 °F /  -1.7 °C 29.78in /  1008.4hPa WNW 10.0mph /  16.1km/h 17.0mph /  27.4km/h 43% 0.00in /  0mm
09:06 50.5 °F /  10.3 °C 28.3 °F /  -2.1 °C 29.78in /  1008.4hPa WNW 13.0mph /  20.9km/h 17.0mph /  27.4km/h 42% 0.00in /  0mm
09:11 50.5 °F /  10.3 °C 29.4 °F /  -1.4 °C 29.78in /  1008.4hPa West 13.0mph /  20.9km/h 15.0mph /  24.1km/h 44% 0.00in /  0mm
09:16 50.4 °F /  10.2 °C 29.3 °F /  -1.5 °C 29.79in /  1008.7hPa West 6.0mph /  9.7km/h 14.0mph /  22.5km/h 44% 0.00in /  0mm
09:21 50.4 °F /  10.2 °C 30.4 °F /  -0.9 °C 29.79in /  1008.7hPa WNW 7.0mph /  11.3km/h 11.0mph /  17.7km/h 46% 0.00in /  0mm
09:26 50.1 °F /  10.1 °C 30.1 °F /  -1.1 °C 29.80in /  1009hPa WNW 11.0mph /  17.7km/h 16.0mph /  25.7km/h 46% 0.00in /  0mm
09:31 49.8 °F /  9.9 °C 30.9 °F /  -0.6 °C 29.80in /  1009hPa NW 13.0mph /  20.9km/h 13.0mph /  20.9km/h 48% 0.00in /  0mm
09:36 49.5 °F /  9.7 °C 31.6 °F /  -0.2 °C 29.80in /  1009hPa WNW 9.0mph /  14.5km/h 16.0mph /  25.7km/h 50% 0.00in /  0mm
09:41 49.4 °F /  9.7 °C 31.6 °F /  -0.2 °C 29.80in /  1009hPa West 11.0mph /  17.7km/h 21.0mph /  33.8km/h 50% 0.00in /  0mm
09:46 49.2 °F /  9.6 °C 32.3 °F /  0.2 °C 29.81in /  1009.4hPa WNW 10.0mph /  16.1km/h 13.0mph /  20.9km/h 52% 0.00in /  0mm
09:52 49.0 °F /  9.4 °C 31.7 °F /  -0.2 °C 29.81in /  1009.4hPa WNW 11.0mph /  17.7km/h 18.0mph /  29km/h 51% 0.00in /  0mm
09:57 48.7 °F /  9.3 °C 31.4 °F /  -0.3 °C 29.81in /  1009.4hPa WNW 12.0mph /  19.3km/h 17.0mph /  27.4km/h 51% 0.00in /  0mm
10:02 48.7 °F /  9.3 °C 31.4 °F /  -0.3 °C 29.82in /  1009.7hPa WNW 7.0mph /  11.3km/h 13.0mph /  20.9km/h 51% 0.00in /  0mm
10:07 48.8 °F /  9.3 °C 30.5 °F /  -0.8 °C 29.82in /  1009.7hPa West 8.0mph /  12.9km/h 12.0mph /  19.3km/h 49% 0.00in /  0mm
10:12 49.1 °F /  9.5 °C 29.2 °F /  -1.6 °C 29.81in /  1009.4hPa NW 6.0mph /  9.7km/h 14.0mph /  22.5km/h 46% 0.00in /  0mm
10:17 49.2 °F /  9.6 °C 27.7 °F /  -2.4 °C 29.81in /  1009.4hPa WNW 10.0mph /  16.1km/h 14.0mph /  22.5km/h 43% 0.00in /  0mm
10:22 49.3 °F /  9.6 °C 27.8 °F /  -2.3 °C 29.81in /  1009.4hPa West 8.0mph /  12.9km/h 14.0mph /  22.5km/h 43% 0.00in /  0mm
10:27 49.5 °F /  9.7 °C 27.4 °F /  -2.6 °C 29.82in /  1009.7hPa WSW 6.0mph /  9.7km/h 16.0mph /  25.7km/h 42% 0.00in /  0mm
10:32 49.4 °F /  9.7 °C 26.1 °F /  -3.3 °C 29.81in /  1009.4hPa WNW 15.0mph /  24.1km/h 19.0mph /  30.6km/h 40% 0.00in /  0mm
10:37 49.3 °F /  9.6 °C 26.0 °F /  -3.3 °C 29.82in /  1009.7hPa West 6.0mph /  9.7km/h 17.0mph /  27.4km/h 40% 0.00in /  0mm
10:42 49.4 °F /  9.7 °C 26.1 °F /  -3.3 °C 29.82in /  1009.7hPa West 9.0mph /  14.5km/h 16.0mph /  25.7km/h 40% 0.00in /  0mm
10:47 49.4 °F /  9.7 °C 26.7 °F /  -2.9 °C 29.82in /  1009.7hPa West 16.0mph /  25.7km/h 17.0mph /  27.4km/h 41% 0.00in /  0mm
10:52 49.7 °F /  9.8 °C 28.1 °F /  -2.2 °C 29.83in /  1010hPa NW 4.0mph /  6.4km/h 11.0mph /  17.7km/h 43% 0.00in /  0mm
10:57 50.1 °F /  10.1 °C 27.9 °F /  -2.3 °C 29.83in /  1010hPa West 8.0mph /  12.9km/h 14.0mph /  22.5km/h 42% 0.00in /  0mm
11:02 50.6 °F /  10.3 °C 28.4 °F /  -2 °C 29.83in /  1010hPa WNW 13.0mph /  20.9km/h 17.0mph /  27.4km/h 42% 0.00in /  0mm
11:07 50.9 °F /  10.5 °C 28.6 °F /  -1.9 °C 29.83in /  1010hPa West 12.0mph /  19.3km/h 16.0mph /  25.7km/h 42% 0.00in /  0mm
11:12 50.9 °F /  10.5 °C 27.5 °F /  -2.5 °C 29.83in /  1010hPa WNW 18.0mph /  29km/h 22.0mph /  35.4km/h 40% 0.00in /  0mm
11:17 51.4 °F /  10.8 °C 29.1 °F /  -1.6 °C 29.84in /  1010.4hPa West 17.0mph /  27.4km/h 19.0mph /  30.6km/h 42% 0.00in /  0mm
11:22 52.2 °F /  11.2 °C 27.4 °F /  -2.6 °C 29.84in /  1010.4hPa West 8.0mph /  12.9km/h 22.0mph /  35.4km/h 38% 0.00in /  0mm
11:27 52.1 °F /  11.2 °C 25.3 °F /  -3.7 °C 29.85in /  1010.7hPa West 14.0mph /  22.5km/h 24.0mph /  38.6km/h 35% 0.00in /  0mm
11:32 51.5 °F /  10.8 °C 24.8 °F /  -4 °C 29.84in /  1010.4hPa West 12.0mph /  19.3km/h 23.0mph /  37km/h 35% 0.00in /  0mm
11:37 51.3 °F /  10.7 °C 23.9 °F /  -4.5 °C 29.85in /  1010.7hPa WNW 13.0mph /  20.9km/h 23.0mph /  37km/h 34% 0.00in /  0mm
11:42 50.7 °F /  10.4 °C 23.4 °F /  -4.8 °C 29.86in /  1011.1hPa WNW 20.0mph /  32.2km/h 23.0mph /  37km/h 34% 0.00in /  0mm
11:47 50.4 °F /  10.2 °C 25.8 °F /  -3.4 °C 29.86in /  1011.1hPa WNW 10.0mph /  16.1km/h 18.0mph /  29km/h 38% 0.00in /  0mm
11:52 50.2 °F /  10.1 °C 26.2 °F /  -3.2 °C 29.86in /  1011.1hPa WNW 8.0mph /  12.9km/h 18.0mph /  29km/h 39% 0.00in /  0mm
11:57 50.3 °F /  10.2 °C 26.3 °F /  -3.2 °C 29.86in /  1011.1hPa WNW 7.0mph /  11.3km/h 18.0mph /  29km/h 39% 0.00in /  0mm
12:02 51.3 °F /  10.7 °C 27.2 °F /  -2.7 °C 29.87in /  1011.4hPa NW 14.0mph /  22.5km/h 21.0mph /  33.8km/h 39% 0.00in /  0mm
12:07 51.2 °F /  10.7 °C 25.8 °F /  -3.4 °C 29.87in /  1011.4hPa West 25.0mph /  40.2km/h 25.0mph /  40.2km/h 37% 0.00in /  0mm
12:12 51.1 °F /  10.6 °C 25.8 °F /  -3.4 °C 29.88in /  1011.7hPa West 17.0mph /  27.4km/h 23.0mph /  37km/h 37% 0.00in /  0mm
12:17 50.8 °F /  10.4 °C 26.1 °F /  -3.3 °C 29.88in /  1011.7hPa WNW 16.0mph /  25.7km/h 23.0mph /  37km/h 38% 0.00in /  0mm
12:23 50.3 °F /  10.2 °C 26.3 °F /  -3.2 °C 29.88in /  1011.7hPa NW 19.0mph /  30.6km/h 25.0mph /  40.2km/h 39% 0.00in /  0mm
12:28 50.3 °F /  10.2 °C 26.3 °F /  -3.2 °C 29.89in /  1012.1hPa WNW 13.0mph /  20.9km/h 24.0mph /  38.6km/h 39% 0.00in /  0mm
12:33 50.4 °F /  10.2 °C 26.4 °F /  -3.1 °C 29.88in /  1011.7hPa WNW 16.0mph /  25.7km/h 19.0mph /  30.6km/h 39% 0.00in /  0mm
12:38 50.4 °F /  10.2 °C 27.0 °F /  -2.8 °C 29.88in /  1011.7hPa WNW 15.0mph /  24.1km/h 18.0mph /  29km/h 40% 0.00in /  0mm
12:43 50.2 °F /  10.1 °C 28.0 °F /  -2.2 °C 29.89in /  1012.1hPa West 7.0mph /  11.3km/h 23.0mph /  37km/h 42% 0.00in /  0mm
12:48 50.4 °F /  10.2 °C 28.2 °F /  -2.1 °C 29.89in /  1012.1hPa West 9.0mph /  14.5km/h 20.0mph /  32.2km/h 42% 0.00in /  0mm
12:53 50.3 °F /  10.2 °C 28.1 °F /  -2.2 °C 29.89in /  1012.1hPa WNW 17.0mph /  27.4km/h 24.0mph /  38.6km/h 42% 0.00in /  0mm
12:58 50.2 °F /  10.1 °C 29.7 °F /  -1.3 °C 29.89in /  1012.1hPa West 16.0mph /  25.7km/h 18.0mph /  29km/h 45% 0.00in /  0mm
13:03 50.8 °F /  10.4 °C 29.7 °F /  -1.3 °C 29.90in /  1012.4hPa NW 12.0mph /  19.3km/h 21.0mph /  33.8km/h 44% 0.00in /  0mm
13:08 50.9 °F /  10.5 °C 29.2 °F /  -1.6 °C 29.90in /  1012.4hPa WNW 9.0mph /  14.5km/h 16.0mph /  25.7km/h 43% 0.00in /  0mm
13:13 51.2 °F /  10.7 °C 30.0 °F /  -1.1 °C 29.90in /  1012.4hPa WNW 12.0mph /  19.3km/h 20.0mph /  32.2km/h 44% 0.00in /  0mm
13:18 51.4 °F /  10.8 °C 29.1 °F /  -1.6 °C 29.90in /  1012.4hPa WNW 16.0mph /  25.7km/h 19.0mph /  30.6km/h 42% 0.00in /  0mm
13:23 51.6 °F /  10.9 °C 28.1 °F /  -2.2 °C 29.90in /  1012.4hPa WNW 24.0mph /  38.6km/h 24.0mph /  38.6km/h 40% 0.00in /  0mm
13:28 50.5 °F /  10.3 °C 28.9 °F /  -1.7 °C 29.90in /  1012.4hPa WNW 13.0mph /  20.9km/h 19.0mph /  30.6km/h 43% 0.00in /  0mm
13:33 50.8 °F /  10.4 °C 29.1 °F /  -1.6 °C 29.90in /  1012.4hPa West 11.0mph /  17.7km/h 24.0mph /  38.6km/h 43% 0.00in /  0mm
13:38 51.7 °F /  10.9 °C 29.4 °F /  -1.4 °C 29.90in /  1012.4hPa WNW 17.0mph /  27.4km/h 21.0mph /  33.8km/h 42% 0.00in /  0mm
13:43 50.7 °F /  10.4 °C 29.6 °F /  -1.3 °C 29.90in /  1012.4hPa NW 11.0mph /  17.7km/h 22.0mph /  35.4km/h 44% 0.00in /  0mm
13:48 50.1 °F /  10.1 °C 27.3 °F /  -2.6 °C 29.90in /  1012.4hPa West 14.0mph /  22.5km/h 19.0mph /  30.6km/h 41% 0.00in /  0mm
13:53 49.9 °F /  9.9 °C 27.7 °F /  -2.4 °C 29.90in /  1012.4hPa West 13.0mph /  20.9km/h 25.0mph /  40.2km/h 42% 0.00in /  0mm
13:58 50.1 °F /  10.1 °C 28.5 °F /  -1.9 °C 29.90in /  1012.4hPa NW 11.0mph /  17.7km/h 19.0mph /  30.6km/h 43% 0.00in /  0mm
14:03 50.3 °F /  10.2 °C 28.7 °F /  -1.8 °C 29.91in /  1012.8hPa West 15.0mph /  24.1km/h 19.0mph /  30.6km/h 43% 0.00in /  0mm
14:08 51.1 °F /  10.6 °C 30.0 °F /  -1.1 °C 29.91in /  1012.8hPa WNW 8.0mph /  12.9km/h 20.0mph /  32.2km/h 44% 0.00in /  0mm
14:13 51.1 °F /  10.6 °C 28.8 °F /  -1.8 °C 29.91in /  1012.8hPa West 14.0mph /  22.5km/h 22.0mph /  35.4km/h 42% 0.00in /  0mm
14:18 50.3 °F /  10.2 °C 28.7 °F /  -1.8 °C 29.92in /  1013.1hPa NW 10.0mph /  16.1km/h 26.0mph /  41.8km/h 43% 0.00in /  0mm
14:23 50.5 °F /  10.3 °C 28.9 °F /  -1.7 °C 29.92in /  1013.1hPa NW 8.0mph /  12.9km/h 22.0mph /  35.4km/h 43% 0.00in /  0mm
14:28 50.8 °F /  10.4 °C 29.1 °F /  -1.6 °C 29.92in /  1013.1hPa NW 19.0mph /  30.6km/h 24.0mph /  38.6km/h 43% 0.00in /  0mm
14:33 50.8 °F /  10.4 °C 29.7 °F /  -1.3 °C 29.92in /  1013.1hPa WNW 9.0mph /  14.5km/h 18.0mph /  29km/h 44% 0.00in /  0mm
14:38 51.4 °F /  10.8 °C 30.8 °F /  -0.7 °C 29.92in /  1013.1hPa West 12.0mph /  19.3km/h 12.0mph /  19.3km/h 45% 0.00in /  0mm
14:43 50.5 °F /  10.3 °C 28.3 °F /  -2.1 °C 29.93in /  1013.4hPa WNW 12.0mph /  19.3km/h 23.0mph /  37km/h 42% 0.00in /  0mm
14:48 50.5 °F /  10.3 °C 28.3 °F /  -2.1 °C 29.93in /  1013.4hPa NW 16.0mph /  25.7km/h 18.0mph /  29km/h 42% 0.00in /  0mm
14:53 50.3 °F /  10.2 °C 28.1 °F /  -2.2 °C 29.94in /  1013.8hPa WNW 15.0mph /  24.1km/h 19.0mph /  30.6km/h 42% 0.00in /  0mm
14:58 49.9 °F /  9.9 °C 28.9 °F /  -1.7 °C 29.94in /  1013.8hPa NW 7.0mph /  11.3km/h 19.0mph /  30.6km/h 44% 0.00in /  0mm
15:03 50.4 °F /  10.2 °C 29.3 °F /  -1.5 °C 29.94in /  1013.8hPa WNW 13.0mph /  20.9km/h 19.0mph /  30.6km/h 44% 0.00in /  0mm
15:08 50.4 °F /  10.2 °C 28.2 °F /  -2.1 °C 29.94in /  1013.8hPa West 12.0mph /  19.3km/h 25.0mph /  40.2km/h 42% 0.00in /  0mm
15:13 49.8 °F /  9.9 °C 27.6 °F /  -2.4 °C 29.95in /  1014.1hPa WNW 12.0mph /  19.3km/h 21.0mph /  33.8km/h 42% 0.00in /  0mm
15:18 49.4 °F /  9.7 °C 27.9 °F /  -2.3 °C 29.95in /  1014.1hPa WNW 16.0mph /  25.7km/h 21.0mph /  33.8km/h 43% 0.00in /  0mm
15:24 49.7 °F /  9.8 °C 28.7 °F /  -1.8 °C 29.95in /  1014.1hPa WNW 10.0mph /  16.1km/h 13.0mph /  20.9km/h 44% 0.00in /  0mm
15:29 50.4 °F /  10.2 °C 28.8 °F /  -1.8 °C 29.95in /  1014.1hPa WNW 10.0mph /  16.1km/h 15.0mph /  24.1km/h 43% 0.00in /  0mm
15:34 51.0 °F /  10.6 °C 28.7 °F /  -1.8 °C 29.95in /  1014.1hPa WNW 13.0mph /  20.9km/h 18.0mph /  29km/h 42% 0.00in /  0mm
15:39 50.7 °F /  10.4 °C 28.5 °F /  -1.9 °C 29.95in /  1014.1hPa West 9.0mph /  14.5km/h 18.0mph /  29km/h 42% 0.00in /  0mm
15:44 50.6 °F /  10.3 °C 28.4 °F /  -2 °C 29.96in /  1014.4hPa WNW 20.0mph /  32.2km/h 20.0mph /  32.2km/h 42% 0.00in /  0mm
15:49 50.5 °F /  10.3 °C 29.4 °F /  -1.4 °C 29.96in /  1014.4hPa WNW 9.0mph /  14.5km/h 15.0mph /  24.1km/h 44% 0.00in /  0mm
15:54 51.1 °F /  10.6 °C 28.8 °F /  -1.8 °C 29.96in /  1014.4hPa West 18.0mph /  29km/h 18.0mph /  29km/h 42% 0.00in /  0mm
15:59 50.3 °F /  10.2 °C 29.8 °F /  -1.2 °C 29.97in /  1014.8hPa NW 11.0mph /  17.7km/h 20.0mph /  32.2km/h 45% 0.00in /  0mm
16:04 50.4 °F /  10.2 °C 29.9 °F /  -1.2 °C 29.97in /  1014.8hPa West 15.0mph /  24.1km/h 16.0mph /  25.7km/h 45% 0.00in /  0mm
16:09 50.3 °F /  10.2 °C 29.8 °F /  -1.2 °C 29.97in /  1014.8hPa WNW 12.0mph /  19.3km/h 17.0mph /  27.4km/h 45% 0.00in /  0mm
16:14 50.5 °F /  10.3 °C 29.4 °F /  -1.4 °C 29.97in /  1014.8hPa NW 12.0mph /  19.3km/h 13.0mph /  20.9km/h 44% 0.00in /  0mm
16:19 50.0 °F /  10 °C 28.4 °F /  -2 °C 29.98in /  1015.1hPa NW 9.0mph /  14.5km/h 17.0mph /  27.4km/h 43% 0.00in /  0mm
16:24 49.9 °F /  9.9 °C 30.0 °F /  -1.1 °C 29.97in /  1014.8hPa NW 14.0mph /  22.5km/h 23.0mph /  37km/h 46% 0.00in /  0mm
16:29 50.3 °F /  10.2 °C 28.7 °F /  -1.8 °C 29.98in /  1015.1hPa NW 13.0mph /  20.9km/h 21.0mph /  33.8km/h 43% 0.00in /  0mm
16:34 50.2 °F /  10.1 °C 28.0 °F /  -2.2 °C 29.98in /  1015.1hPa North 9.0mph /  14.5km/h 19.0mph /  30.6km/h 42% 0.00in /  0mm
16:39 50.5 °F /  10.3 °C 28.9 °F /  -1.7 °C 29.98in /  1015.1hPa NNW 9.0mph /  14.5km/h 18.0mph /  29km/h 43% 0.00in /  0mm
16:44 50.8 °F /  10.4 °C 28.5 °F /  -1.9 °C 29.99in /  1015.5hPa WNW 9.0mph /  14.5km/h 13.0mph /  20.9km/h 42% 0.00in /  0mm
16:49 50.7 °F /  10.4 °C 27.9 °F /  -2.3 °C 29.99in /  1015.5hPa NW 6.0mph /  9.7km/h 18.0mph /  29km/h 41% 0.00in /  0mm
16:54 50.5 °F /  10.3 °C 28.9 °F /  -1.7 °C 29.99in /  1015.5hPa West 14.0mph /  22.5km/h 17.0mph /  27.4km/h 43% 0.00in /  0mm
16:59 50.2 °F /  10.1 °C 27.4 °F /  -2.6 °C 30.00in /  1015.8hPa WNW 8.0mph /  12.9km/h 18.0mph /  29km/h 41% 0.00in /  0mm
17:04 49.6 °F /  9.8 °C 27.5 °F /  -2.5 °C 30.00in /  1015.8hPa WNW 18.0mph /  29km/h 21.0mph /  33.8km/h 42% 0.00in /  0mm
17:09 49.3 °F /  9.6 °C 27.2 °F /  -2.7 °C 30.00in /  1015.8hPa NW 20.0mph /  32.2km/h 20.0mph /  32.2km/h 42% 0.00in /  0mm
17:14 48.1 °F /  8.9 °C 26.7 °F /  -2.9 °C 30.01in /  1016.1hPa NW 14.0mph /  22.5km/h 19.0mph /  30.6km/h 43% 0.00in /  0mm
17:19 47.2 °F /  8.4 °C 26.4 °F /  -3.1 °C 30.01in /  1016.1hPa WNW 13.0mph /  20.9km/h 21.0mph /  33.8km/h 44% 0.00in /  0mm
17:24 46.9 °F /  8.3 °C 26.7 °F /  -2.9 °C 30.01in /  1016.1hPa NW 7.0mph /  11.3km/h 16.0mph /  25.7km/h 45% 0.00in /  0mm
17:29 46.8 °F /  8.2 °C 26.6 °F /  -3 °C 30.01in /  1016.1hPa NW 13.0mph /  20.9km/h 17.0mph /  27.4km/h 45% 0.00in /  0mm
17:34 46.5 °F /  8.1 °C 25.8 °F /  -3.4 °C 30.02in /  1016.5hPa NW 15.0mph /  24.1km/h 20.0mph /  32.2km/h 44% 0.00in /  0mm
17:39 46.5 °F /  8.1 °C 25.8 °F /  -3.4 °C 30.02in /  1016.5hPa WNW 19.0mph /  30.6km/h 19.0mph /  30.6km/h 44% 0.00in /  0mm
17:44 46.6 °F /  8.1 °C 25.9 °F /  -3.4 °C 30.03in /  1016.8hPa West 10.0mph /  16.1km/h 12.0mph /  19.3km/h 44% 0.00in /  0mm
17:49 46.8 °F /  8.2 °C 26.6 °F /  -3 °C 30.03in /  1016.8hPa West 9.0mph /  14.5km/h 9.0mph /  14.5km/h 45% 0.00in /  0mm
17:54 47.0 °F /  8.3 °C 27.3 °F /  -2.6 °C 30.03in /  1016.8hPa West 6.0mph /  9.7km/h 12.0mph /  19.3km/h 46% 0.00in /  0mm
17:59 47.0 °F /  8.3 °C 27.3 °F /  -2.6 °C 30.03in /  1016.8hPa West 7.0mph /  11.3km/h 15.0mph /  24.1km/h 46% 0.00in /  0mm
18:04 46.9 °F /  8.3 °C 27.2 °F /  -2.7 °C 30.03in /  1016.8hPa WNW 11.0mph /  17.7km/h 16.0mph /  25.7km/h 46% 0.00in /  0mm
18:09 46.6 °F /  8.1 °C 26.4 °F /  -3.1 °C 30.03in /  1016.8hPa WNW 6.0mph /  9.7km/h 19.0mph /  30.6km/h 45% 0.00in /  0mm
18:14 46.1 °F /  7.8 °C 25.4 °F /  -3.7 °C 30.03in /  1016.8hPa NW 8.0mph /  12.9km/h 22.0mph /  35.4km/h 44% 0.00in /  0mm
18:19 45.7 °F /  7.6 °C 25.6 °F /  -3.6 °C 30.04in /  1017.2hPa WNW 9.0mph /  14.5km/h 18.0mph /  29km/h 45% 0.00in /  0mm
18:24 45.5 °F /  7.5 °C 25.9 °F /  -3.4 °C 30.04in /  1017.2hPa WNW 15.0mph /  24.1km/h 18.0mph /  29km/h 46% 0.00in /  0mm
18:29 45.2 °F /  7.3 °C 25.7 °F /  -3.5 °C 30.05in /  1017.5hPa NW 6.0mph /  9.7km/h 13.0mph /  20.9km/h 46% 0.00in /  0mm
18:34 44.9 °F /  7.2 °C 25.9 °F /  -3.4 °C 30.05in /  1017.5hPa NW 5.0mph /  8km/h 10.0mph /  16.1km/h 47% 0.00in /  0mm
18:39 44.6 °F /  7 °C 25.6 °F /  -3.6 °C 30.05in /  1017.5hPa WNW 7.0mph /  11.3km/h 14.0mph /  22.5km/h 47% 0.00in /  0mm
18:44 44.5 °F /  6.9 °C 25.0 °F /  -3.9 °C 30.06in /  1017.8hPa NW 8.0mph /  12.9km/h 15.0mph /  24.1km/h 46% 0.00in /  0mm
18:49 44.5 °F /  6.9 °C 25.0 °F /  -3.9 °C 30.06in /  1017.8hPa NW 4.0mph /  6.4km/h 11.0mph /  17.7km/h 46% 0.00in /  0mm
18:54 44.2 °F /  6.8 °C 25.3 °F /  -3.7 °C 30.06in /  1017.8hPa WNW 9.0mph /  14.5km/h 12.0mph /  19.3km/h 47% 0.00in /  0mm
18:59 44.1 °F /  6.7 °C 25.2 °F /  -3.8 °C 30.06in /  1017.8hPa WNW 6.0mph /  9.7km/h 15.0mph /  24.1km/h 47% 0.00in /  0mm
19:04 44.0 °F /  6.7 °C 25.6 °F /  -3.6 °C 30.06in /  1017.8hPa NW 7.0mph /  11.3km/h 11.0mph /  17.7km/h 48% 0.00in /  0mm
19:09 43.8 °F /  6.6 °C 25.4 °F /  -3.7 °C 30.07in /  1018.2hPa WNW 9.0mph /  14.5km/h 11.0mph /  17.7km/h 48% 0.00in /  0mm
19:14 43.7 °F /  6.5 °C 25.8 °F /  -3.4 °C 30.07in /  1018.2hPa WNW 5.0mph /  8km/h 8.0mph /  12.9km/h 49% 0.00in /  0mm
19:19 43.4 °F /  6.3 °C 26.0 °F /  -3.3 °C 30.07in /  1018.2hPa WNW 3.0mph /  4.8km/h 11.0mph /  17.7km/h 50% 0.00in /  0mm
19:24 43.1 °F /  6.2 °C 25.7 °F /  -3.5 °C 30.08in /  1018.5hPa WNW 5.0mph /  8km/h 8.0mph /  12.9km/h 50% 0.00in /  0mm
19:29 42.8 °F /  6 °C 25.9 °F /  -3.4 °C 30.08in /  1018.5hPa WNW 4.0mph /  6.4km/h 5.0mph /  8km/h 51% 0.00in /  0mm
19:34 42.5 °F /  5.8 °C 26.1 °F /  -3.3 °C 30.09in /  1018.8hPa NW 3.0mph /  4.8km/h 5.0mph /  8km/h 52% 0.00in /  0mm
19:40 42.4 °F /  5.8 °C 26.0 °F /  -3.3 °C 30.09in /  1018.8hPa WNW 3.0mph /  4.8km/h 8.0mph /  12.9km/h 52% 0.00in /  0mm
19:45 42.5 °F /  5.8 °C 26.1 °F /  -3.3 °C 30.09in /  1018.8hPa WNW 2.0mph /  3.2km/h 8.0mph /  12.9km/h 52% 0.00in /  0mm
19:50 42.4 °F /  5.8 °C 26.0 °F /  -3.3 °C 30.10in /  1019.2hPa NW 5.0mph /  8km/h 8.0mph /  12.9km/h 52% 0.00in /  0mm
19:55 42.2 °F /  5.7 °C 26.3 °F /  -3.2 °C 30.09in /  1018.8hPa WNW 5.0mph /  8km/h 6.0mph /  9.7km/h 53% 0.00in /  0mm
20:00 42.0 °F /  5.6 °C 26.1 °F /  -3.3 °C 30.10in /  1019.2hPa WNW 4.0mph /  6.4km/h 6.0mph /  9.7km/h 53% 0.00in /  0mm
20:05 41.9 °F /  5.5 °C 26.5 °F /  -3.1 °C 30.10in /  1019.2hPa NW 3.0mph /  4.8km/h 7.0mph /  11.3km/h 54% 0.00in /  0mm
20:10 41.5 °F /  5.3 °C 26.5 °F /  -3.1 °C 30.10in /  1019.2hPa NW 3.0mph /  4.8km/h 5.0mph /  8km/h 55% 0.00in /  0mm
20:15 41.3 °F /  5.2 °C 26.4 °F /  -3.1 °C 30.10in /  1019.2hPa NW 3.0mph /  4.8km/h 6.0mph /  9.7km/h 55% 0.00in /  0mm
20:20 41.4 °F /  5.2 °C 26.5 °F /  -3.1 °C 30.11in /  1019.5hPa WNW 4.0mph /  6.4km/h 6.0mph /  9.7km/h 55% 0.00in /  0mm
20:25 41.4 °F /  5.2 °C 26.5 °F /  -3.1 °C 30.11in /  1019.5hPa WNW 2.0mph /  3.2km/h 4.0mph /  6.4km/h 55% 0.00in /  0mm
20:30 41.0 °F /  5 °C 26.1 °F /  -3.3 °C 30.12in /  1019.9hPa Calm   3.0mph /  4.8km/h 55% 0.00in /  0mm
20:35 40.9 °F /  4.9 °C 26.0 °F /  -3.3 °C 30.12in /  1019.9hPa WNW 2.0mph /  3.2km/h 6.0mph /  9.7km/h 55% 0.00in /  0mm
20:36 40.9 °F /  4.9 °C 26.0 °F /  -3.3 °C 30.12in /  1019.9hPa NW 4.0mph /  6.4km/h 7.0mph /  11.3km/h 55% 0.00in /  0mm
20:41 40.7 °F /  4.8 °C 26.2 °F /  -3.2 °C 30.12in /  1019.9hPa NW 2.0mph /  3.2km/h 2.0mph /  3.2km/h 56% 0.00in /  0mm
20:46 40.5 °F /  4.7 °C 26.0 °F /  -3.3 °C 30.12in /  1019.9hPa NW 1.0mph /  1.6km/h 2.0mph /  3.2km/h 56% 0.00in /  0mm
20:51 40.4 °F /  4.7 °C 26.4 °F /  -3.1 °C 30.12in /  1019.9hPa NW 1.0mph /  1.6km/h 2.0mph /  3.2km/h 57% 0.00in /  0mm
20:56 40.2 °F /  4.6 °C 26.2 °F /  -3.2 °C 30.12in /  1019.9hPa NW 1.0mph /  1.6km/h 2.0mph /  3.2km/h 57% 0.00in /  0mm
21:01 40.1 °F /  4.5 °C 26.1 °F /  -3.3 °C 30.12in /  1019.9hPa NW 2.0mph /  3.2km/h 2.0mph /  3.2km/h 57% 0.00in /  0mm
21:06 40.0 °F /  4.4 °C 26.0 °F /  -3.3 °C 30.12in /  1019.9hPa Calm   2.0mph /  3.2km/h 57% 0.00in /  0mm
21:11 39.9 °F /  4.4 °C 25.9 °F /  -3.4 °C 30.12in /  1019.9hPa Calm     57% 0.00in /  0mm
21:16 39.8 °F /  4.3 °C 25.8 °F /  -3.4 °C 30.13in /  1020.2hPa Calm   1.0mph /  1.6km/h 57% 0.00in /  0mm
21:21 39.7 °F /  4.3 °C 26.1 °F /  -3.3 °C 30.12in /  1019.9hPa NNW 1.0mph /  1.6km/h 2.0mph /  3.2km/h 58% 0.00in /  0mm
21:26 39.7 °F /  4.3 °C 26.1 °F /  -3.3 °C 30.13in /  1020.2hPa Calm   1.0mph /  1.6km/h 58% 0.00in /  0mm
21:32 39.4 °F /  4.1 °C 25.9 °F /  -3.4 °C 30.13in /  1020.2hPa Calm   1.0mph /  1.6km/h 58% 0.00in /  0mm
21:37 39.2 °F /  4 °C 25.7 °F /  -3.5 °C 30.13in /  1020.2hPa Calm     58% 0.00in /  0mm
21:42 39.0 °F /  3.9 °C 25.9 °F /  -3.4 °C 30.13in /  1020.2hPa Calm     59% 0.00in /  0mm
21:47 38.4 °F /  3.6 °C 25.3 °F /  -3.7 °C 30.14in /  1020.5hPa Calm     59% 0.00in /  0mm
21:52 38.0 °F /  3.3 °C 25.8 °F /  -3.4 °C 30.14in /  1020.5hPa Calm     61% 0.00in /  0mm
21:57 37.5 °F /  3.1 °C 25.3 °F /  -3.7 °C 30.14in /  1020.5hPa Calm     61% 0.00in /  0mm
22:02 36.8 °F /  2.7 °C 25.0 °F /  -3.9 °C 30.14in /  1020.5hPa Calm     62% 0.00in /  0mm
22:07 36.5 °F /  2.5 °C 25.5 °F /  -3.6 °C 30.14in /  1020.5hPa Calm     64% 0.00in /  0mm
22:12 36.7 °F /  2.6 °C 25.7 °F /  -3.5 °C 30.14in /  1020.5hPa Calm     64% 0.00in /  0mm
22:17 36.5 °F /  2.5 °C 25.5 °F /  -3.6 °C 30.15in /  1020.9hPa Calm     64% 0.00in /  0mm
22:22 36.1 °F /  2.3 °C 25.9 °F /  -3.4 °C 30.15in /  1020.9hPa Calm     66% 0.00in /  0mm
22:27 35.9 °F /  2.2 °C 26.0 °F /  -3.3 °C 30.15in /  1020.9hPa Calm     67% 0.00in /  0mm
22:32 35.8 °F /  2.1 °C 25.9 °F /  -3.4 °C 30.16in /  1021.2hPa Calm     67% 0.00in /  0mm
22:38 35.7 °F /  2.1 °C 25.8 °F /  -3.4 °C 30.16in /  1021.2hPa Calm     67% 0.00in /  0mm
22:43 35.6 °F /  2 °C 25.7 °F /  -3.5 °C 30.16in /  1021.2hPa Calm     67% 0.00in /  0mm
22:48 35.4 °F /  1.9 °C 25.5 °F /  -3.6 °C 30.16in /  1021.2hPa Calm     67% 0.00in /  0mm
22:53 35.2 °F /  1.8 °C 25.7 °F /  -3.5 °C 30.16in /  1021.2hPa Calm     68% 0.00in /  0mm
22:58 35.0 °F /  1.7 °C 25.5 °F /  -3.6 °C 30.16in /  1021.2hPa Calm     68% 0.00in /  0mm
23:03 35.4 °F /  1.9 °C 25.5 °F /  -3.6 °C 30.17in /  1021.6hPa Calm     67% 0.00in /  0mm
23:08 35.7 °F /  2.1 °C 25.8 °F /  -3.4 °C 30.17in /  1021.6hPa Calm     67% 0.00in /  0mm
23:13 35.5 °F /  1.9 °C 25.6 °F /  -3.6 °C 30.17in /  1021.6hPa Calm     67% 0.00in /  0mm
23:18 35.0 °F /  1.7 °C 25.9 °F /  -3.4 °C 30.17in /  1021.6hPa Calm     69% 0.00in /  0mm
23:23 34.6 °F /  1.4 °C 27.5 °F /  -2.5 °C 30.17in /  1021.6hPa Calm     75% 0.00in /  0mm
23:28 34.3 °F /  1.3 °C 28.5 °F /  -1.9 °C 30.17in /  1021.6hPa Calm     79% 0.00in /  0mm
23:33 34.0 °F /  1.1 °C 28.2 °F /  -2.1 °C 30.17in /  1021.6hPa Calm     79% 0.00in /  0mm
23:38 33.9 °F /  1.1 °C 26.8 °F /  -2.9 °C 30.17in /  1021.6hPa Calm     75% 0.00in /  0mm
23:43 34.3 °F /  1.3 °C 26.6 °F /  -3 °C 30.17in /  1021.6hPa Calm     73% 0.00in /  0mm
23:48 34.5 °F /  1.4 °C 26.1 °F /  -3.3 °C 30.17in /  1021.6hPa Calm     71% 0.00in /  0mm
23:53 34.7 °F /  1.5 °C 25.9 °F /  -3.4 °C 30.17in /  1021.6hPa Calm     70% 0.00in /  0mm
23:58 34.8 °F /  1.6 °C 25.7 °F /  -3.5 °C 30.17in /  1021.6hPa Calm     69% 0.00in /  0mm
Compliments of Weather Underground